createdAt,value
2023-04-23T00:01:12.347Z,4.38
2023-04-23T00:04:00.499Z,6.00
2023-04-23T00:06:48.199Z,4.78
2023-04-23T00:09:36.311Z,6.15
2023-04-23T00:12:23.967Z,5.80
2023-04-23T00:15:12.220Z,5.38
2023-04-23T00:17:59.656Z,4.85
2023-04-23T00:20:47.042Z,6.75
2023-04-23T00:23:34.508Z,4.43
2023-04-23T00:26:21.859Z,4.97
2023-04-23T00:29:09.246Z,4.90
2023-04-23T00:31:56.689Z,6.17
2023-04-23T00:34:44.301Z,6.67
2023-04-23T00:37:31.686Z,4.90
2023-04-23T00:40:20.434Z,5.57
2023-04-23T00:43:09.603Z,5.23
2023-04-23T00:45:57.309Z,4.70
2023-04-23T00:48:46.124Z,5.63
2023-04-23T00:51:33.458Z,6.23
2023-04-23T00:54:22.013Z,5.67
2023-04-23T00:57:09.697Z,6.10
2023-04-23T00:59:58.400Z,5.83
2023-04-23T01:02:47.418Z,6.90
2023-04-23T01:05:34.936Z,7.67
2023-04-23T01:08:23.990Z,5.40
2023-04-23T01:11:11.800Z,6.23
2023-04-23T01:13:59.829Z,6.67
2023-04-23T01:16:47.590Z,5.47
2023-04-23T01:19:35.332Z,6.50
2023-04-23T01:22:22.968Z,7.17
2023-04-23T01:25:10.554Z,5.57
2023-04-23T01:27:58.764Z,6.20
2023-04-23T01:30:46.193Z,8.00
2023-04-23T01:33:34.192Z,6.23
2023-04-23T01:36:22.955Z,9.13
2023-04-23T01:39:10.331Z,8.23
2023-04-23T01:41:58.370Z,8.73
2023-04-23T01:44:45.758Z,8.23
2023-04-23T01:47:33.196Z,7.87
2023-04-23T01:50:23.237Z,7.43
2023-04-23T01:53:11.009Z,9.70
2023-04-23T01:55:58.635Z,7.37
2023-04-23T01:58:45.989Z,8.73
2023-04-23T02:01:44.141Z,9.40
2023-04-23T02:04:31.742Z,11.93
2023-04-23T02:07:19.336Z,9.60
2023-04-23T02:10:07.885Z,10.00
2023-04-23T02:12:55.403Z,10.70
2023-04-23T02:15:43.213Z,10.40
2023-04-23T02:18:30.710Z,16.03
2023-04-23T02:21:18.252Z,9.30
2023-04-23T02:24:06.029Z,11.70
2023-04-23T02:26:53.433Z,10.67
2023-04-23T02:29:41.158Z,12.07
2023-04-23T02:32:29.158Z,13.10
2023-04-23T02:35:16.540Z,12.37
2023-04-23T02:38:04.608Z,12.03
2023-04-23T02:40:52.026Z,11.50
2023-04-23T02:43:39.405Z,13.93
2023-04-23T02:46:26.850Z,17.33
2023-04-23T02:49:14.647Z,12.60
2023-04-23T02:52:02.034Z,15.83
2023-04-23T02:54:49.415Z,14.43
2023-04-23T02:57:36.990Z,16.73
2023-04-23T03:00:24.532Z,15.97
2023-04-23T03:03:12.758Z,17.20
2023-04-23T03:06:01.373Z,17.67
2023-04-23T03:08:48.706Z,18.33
2023-04-23T03:11:36.120Z,26.83
2023-04-23T03:14:23.450Z,26.53
2023-04-23T03:17:11.101Z,27.33
2023-04-23T03:19:58.458Z,30.50
2023-04-23T03:22:45.967Z,27.33
2023-04-23T03:25:33.869Z,28.93
2023-04-23T03:28:21.325Z,29.23
2023-04-23T03:31:08.759Z,29.43
2023-04-23T03:33:56.157Z,31.40
2023-04-23T03:36:44.649Z,28.17
2023-04-23T03:39:32.001Z,27.43
2023-04-23T03:42:19.399Z,28.13
2023-04-23T03:45:07.255Z,28.17
2023-04-23T03:47:54.658Z,27.90
2023-04-23T03:50:42.108Z,28.80
2023-04-23T03:53:29.448Z,25.70
2023-04-23T03:56:16.848Z,24.23
2023-04-23T03:59:04.210Z,23.97
2023-04-23T04:01:51.533Z,27.60
2023-04-23T04:04:39.155Z,24.07
2023-04-23T04:07:26.935Z,27.60
2023-04-23T04:10:14.310Z,27.30
2023-04-23T04:13:01.941Z,29.53
2023-04-23T04:15:49.267Z,31.07
2023-04-23T04:18:36.637Z,28.33
2023-04-23T04:21:24.008Z,33.60
2023-04-23T04:24:11.468Z,32.43
2023-04-23T04:26:59.979Z,34.40
2023-04-23T04:29:48.317Z,34.57
2023-04-23T04:32:35.815Z,32.27
2023-04-23T04:35:23.288Z,33.30
2023-04-23T04:38:11.286Z,33.13
2023-04-23T04:41:02.412Z,34.43
2023-04-23T04:43:49.736Z,33.17
2023-04-23T04:46:40.532Z,36.83
2023-04-23T04:49:28.029Z,35.80
2023-04-23T04:52:15.403Z,36.17
2023-04-23T04:55:02.784Z,38.53
2023-04-23T04:57:50.185Z,41.93
2023-04-23T05:00:37.875Z,39.53
2023-04-23T05:03:26.140Z,41.87
2023-04-23T05:06:13.662Z,33.13
2023-04-23T05:09:01.108Z,31.13
2023-04-23T05:11:48.508Z,29.37
2023-04-23T05:14:35.929Z,23.40
2023-04-23T05:17:23.314Z,22.03
2023-04-23T05:20:11.162Z,21.33
2023-04-23T05:23:02.698Z,21.43
2023-04-23T05:25:53.751Z,20.83
2023-04-23T05:28:41.622Z,16.30
2023-04-23T05:31:29.583Z,20.13
2023-04-23T05:34:16.958Z,15.97
2023-04-23T05:37:04.334Z,15.83
2023-04-23T05:39:51.710Z,14.80
2023-04-23T05:42:39.127Z,12.77
2023-04-23T05:45:26.546Z,12.07
2023-04-23T05:48:14.114Z,12.40
2023-04-23T05:51:01.768Z,12.10
2023-04-23T05:53:49.133Z,12.67
2023-04-23T05:56:37.082Z,11.57
2023-04-23T05:59:24.427Z,10.63
2023-04-23T06:02:12.097Z,9.60
2023-04-23T06:04:59.768Z,10.10
2023-04-23T06:07:47.274Z,7.57
2023-04-23T06:10:34.619Z,8.30
2023-04-23T06:13:22.021Z,7.23
2023-04-23T06:16:09.356Z,7.57
2023-04-23T06:18:56.798Z,7.73
2023-04-23T06:21:44.158Z,13.47
2023-04-23T06:24:31.696Z,9.20
2023-04-23T06:27:19.061Z,10.03
2023-04-23T06:30:06.765Z,9.93
2023-04-23T06:32:54.200Z,10.23
2023-04-23T06:35:41.708Z,9.90
2023-04-23T06:38:29.042Z,9.03
2023-04-23T06:41:16.451Z,10.10
2023-04-23T06:44:03.876Z,9.43
2023-04-23T06:46:51.347Z,10.53
2023-04-23T06:49:40.733Z,7.73
2023-04-23T06:52:28.213Z,7.60
2023-04-23T06:55:15.766Z,9.60
2023-04-23T06:58:03.412Z,6.30
2023-04-23T07:00:50.821Z,6.40
2023-04-23T07:03:38.235Z,5.90
2023-04-23T07:06:25.623Z,7.27
2023-04-23T07:09:12.990Z,9.10
2023-04-23T07:12:01.910Z,6.90
2023-04-23T07:14:49.298Z,6.93
2023-04-23T07:17:36.684Z,9.60
2023-04-23T07:20:24.125Z,7.77
2023-04-23T07:23:11.706Z,7.83
2023-04-23T07:25:59.145Z,7.90
2023-04-23T07:28:48.617Z,8.07
2023-04-23T07:31:37.331Z,8.93
2023-04-23T07:34:24.772Z,9.17
2023-04-23T07:37:12.100Z,7.80
2023-04-23T07:40:00.735Z,7.03
2023-04-23T07:42:48.123Z,6.50
2023-04-23T07:45:35.492Z,8.23
2023-04-23T07:48:22.856Z,9.00
2023-04-23T07:51:10.260Z,8.77
2023-04-23T07:53:58.300Z,8.17
2023-04-23T07:56:45.630Z,5.73
2023-04-23T07:59:33.005Z,7.30
2023-04-23T08:02:23.793Z,6.07
2023-04-23T08:05:11.458Z,6.47
2023-04-23T08:07:59.126Z,6.03
2023-04-23T08:10:46.920Z,7.97
2023-04-23T08:13:34.516Z,6.13
2023-04-23T08:16:21.937Z,5.53
2023-04-23T08:19:09.353Z,7.77
2023-04-23T08:21:56.692Z,6.70
2023-04-23T08:24:45.124Z,6.23
2023-04-23T08:27:33.654Z,5.23
2023-04-23T08:30:21.260Z,7.40
2023-04-23T08:33:08.700Z,5.73
2023-04-23T08:35:56.122Z,6.33
2023-04-23T08:38:43.488Z,6.80
2023-04-23T08:41:34.879Z,4.33
2023-04-23T08:44:26.262Z,7.00
2023-04-23T08:47:17.382Z,5.40
2023-04-23T08:50:05.396Z,5.87
2023-04-23T08:52:56.526Z,5.33
2023-04-23T08:55:44.287Z,6.77
2023-04-23T08:58:31.977Z,6.50
2023-04-23T09:01:19.755Z,7.00
2023-04-23T09:04:08.568Z,6.23
2023-04-23T09:06:56.930Z,7.83
2023-04-23T09:09:45.147Z,6.33
2023-04-23T09:12:33.244Z,7.33
2023-04-23T09:15:20.655Z,5.43
2023-04-23T09:18:08.332Z,6.53
2023-04-23T09:20:55.758Z,6.07
2023-04-23T09:23:43.952Z,6.70
2023-04-23T09:26:31.453Z,5.40
2023-04-23T09:29:23.465Z,5.70
2023-04-23T09:32:11.050Z,6.53
2023-04-23T09:34:58.429Z,6.60
2023-04-23T09:37:48.643Z,5.80
2023-04-23T09:40:37.791Z,7.10
2023-04-23T09:43:25.160Z,5.80
2023-04-23T09:46:12.558Z,7.13
2023-04-23T09:49:01.081Z,6.53
2023-04-23T09:51:48.964Z,6.57
2023-04-23T09:54:36.399Z,6.80
2023-04-23T09:57:25.199Z,6.10
2023-04-23T10:00:17.114Z,8.25
2023-04-23T10:03:05.556Z,5.93
2023-04-23T10:06:01.814Z,10.33
2023-04-23T10:08:50.108Z,6.82
2023-04-23T10:11:37.665Z,7.18
2023-04-23T10:14:25.795Z,8.57
2023-04-23T10:17:13.322Z,6.53
2023-04-23T10:20:04.081Z,6.40
2023-04-23T10:22:52.800Z,6.80
2023-04-23T10:25:41.324Z,7.43
2023-04-23T10:28:31.958Z,6.22
2023-04-23T10:31:21.168Z,7.57
2023-04-23T10:34:10.457Z,8.57
2023-04-23T10:37:01.753Z,9.05
2023-04-23T10:39:55.984Z,7.72
2023-04-23T10:42:47.328Z,7.30
2023-04-23T10:45:34.711Z,6.97
2023-04-23T10:48:22.143Z,7.60
2023-04-23T10:51:24.929Z,7.72
2023-04-23T10:54:17.416Z,7.93
2023-04-23T10:57:05.874Z,6.63
2023-04-23T10:59:54.519Z,7.22
2023-04-23T11:02:45.302Z,7.70
2023-04-23T11:05:35.729Z,7.68
2023-04-23T11:08:23.119Z,8.60
2023-04-23T11:11:10.545Z,7.22
2023-04-23T11:13:59.118Z,7.38
2023-04-23T11:16:49.413Z,7.53
2023-04-23T11:19:37.268Z,7.93
2023-04-23T11:22:24.844Z,7.57
2023-04-23T11:25:13.470Z,5.95
2023-04-23T11:28:02.429Z,8.07
2023-04-23T11:30:51.627Z,7.40
2023-04-23T11:33:39.394Z,6.95
2023-04-23T11:36:28.235Z,5.93
2023-04-23T11:39:15.842Z,7.20
2023-04-23T11:42:06.615Z,6.63
2023-04-23T11:44:54.152Z,7.53
2023-04-23T11:47:41.761Z,6.53
2023-04-23T11:50:33.695Z,6.95
2023-04-23T11:53:23.693Z,6.35
2023-04-23T11:56:11.402Z,5.90
2023-04-23T11:59:00.094Z,7.00
2023-04-23T12:01:48.755Z,6.72
2023-04-23T12:04:37.007Z,8.35
2023-04-23T12:07:32.905Z,5.88
2023-04-23T12:10:21.291Z,7.50
2023-04-23T12:13:13.759Z,7.63
2023-04-23T12:16:02.166Z,6.90
2023-04-23T12:18:54.448Z,5.97
2023-04-23T12:21:48.959Z,5.35
2023-04-23T12:24:51.443Z,6.32
2023-04-23T12:27:44.506Z,6.78
2023-04-23T12:30:32.468Z,6.75
2023-04-23T12:33:21.330Z,6.88
2023-04-23T12:36:11.774Z,6.05
2023-04-23T12:39:18.109Z,6.20
2023-04-23T12:42:06.604Z,6.15
2023-04-23T12:44:56.189Z,6.97
2023-04-23T12:47:43.641Z,6.15
2023-04-23T12:50:31.053Z,6.80
2023-04-23T12:53:18.947Z,7.97
2023-04-23T12:56:06.403Z,6.80
2023-04-23T12:58:53.817Z,7.30
2023-04-23T13:01:41.685Z,6.57
2023-04-23T13:04:34.691Z,6.43
2023-04-23T13:07:22.337Z,7.00
2023-04-23T13:10:10.381Z,7.50
2023-04-23T13:12:57.756Z,7.43
2023-04-23T13:15:45.184Z,5.50
2023-04-23T13:18:32.572Z,6.40
2023-04-23T13:21:20.230Z,9.07
2023-04-23T13:24:07.646Z,5.30
2023-04-23T13:26:56.866Z,6.65
2023-04-23T13:29:44.530Z,6.75
2023-04-23T13:32:32.596Z,7.03
2023-04-23T13:35:20.021Z,5.53
2023-04-23T13:38:07.440Z,6.80
2023-04-23T13:40:54.839Z,5.68
2023-04-23T13:43:42.287Z,5.32
2023-04-23T13:46:30.030Z,5.15
2023-04-23T13:49:18.636Z,5.13
2023-04-23T13:52:06.791Z,4.78
2023-04-23T13:54:56.991Z,5.35
2023-04-23T13:57:44.363Z,4.70
2023-04-23T14:00:31.930Z,5.18
2023-04-23T14:03:20.286Z,5.47
2023-04-23T14:06:07.787Z,7.60
2023-04-23T14:08:55.162Z,5.55
2023-04-23T14:11:42.596Z,7.07
2023-04-23T14:14:30.068Z,5.50
2023-04-23T14:17:17.391Z,5.47
2023-04-23T14:20:05.697Z,5.72
2023-04-23T14:22:57.377Z,7.22
2023-04-23T14:25:47.704Z,5.90
2023-04-23T14:28:45.380Z,4.88
2023-04-23T14:31:33.849Z,4.88
2023-04-23T14:34:21.454Z,5.30
2023-04-23T14:37:08.865Z,6.28
2023-04-23T14:39:56.318Z,4.82
2023-04-23T14:42:45.489Z,5.32
2023-04-23T14:45:33.270Z,5.18
2023-04-23T14:48:20.609Z,5.93
2023-04-23T14:51:08.009Z,4.93
2023-04-23T14:53:56.701Z,5.47
2023-04-23T14:56:44.344Z,3.80
2023-04-23T14:59:31.720Z,4.15
2023-04-23T15:02:19.099Z,5.25
2023-04-23T15:05:07.758Z,5.22
2023-04-23T15:07:55.123Z,3.53
2023-04-23T15:10:44.151Z,3.45
2023-04-23T15:13:37.766Z,3.67
2023-04-23T15:16:40.522Z,6.13
2023-04-23T15:19:34.577Z,3.92
2023-04-23T15:22:21.940Z,4.60
2023-04-23T15:25:09.358Z,5.22
2023-04-23T15:27:57.779Z,5.88
2023-04-23T15:30:45.409Z,4.47
2023-04-23T15:33:32.980Z,6.05
2023-04-23T15:36:20.380Z,6.35
2023-04-23T15:39:09.042Z,4.95
2023-04-23T15:41:58.082Z,4.93
2023-04-23T15:44:48.881Z,4.20
2023-04-23T15:47:36.678Z,4.72
2023-04-23T15:50:26.576Z,3.72
2023-04-23T15:53:14.237Z,4.10
2023-04-23T15:56:01.614Z,5.30
2023-04-23T15:58:49.995Z,4.18
2023-04-23T16:01:37.408Z,6.20
2023-04-23T16:04:25.046Z,4.63
2023-04-23T16:07:12.554Z,4.40
2023-04-23T16:09:59.885Z,5.28
2023-04-23T16:12:48.526Z,4.25
2023-04-23T16:15:35.911Z,4.20
2023-04-23T16:18:23.353Z,4.30
2023-04-23T16:21:10.841Z,4.22
2023-04-23T16:23:58.248Z,4.95
2023-04-23T16:26:45.787Z,6.68
2023-04-23T16:29:33.260Z,6.60
2023-04-23T16:32:20.792Z,7.75
2023-04-23T16:35:08.577Z,6.57
2023-04-23T16:37:56.051Z,5.47
2023-04-23T16:40:47.015Z,4.88
2023-04-23T16:43:34.440Z,4.82
2023-04-23T16:46:21.897Z,4.38
2023-04-23T16:49:09.269Z,5.70
2023-04-23T16:51:56.572Z,5.40
2023-04-23T16:54:44.326Z,5.47
2023-04-23T16:57:32.094Z,4.30
2023-04-23T17:00:19.884Z,4.55
2023-04-23T17:03:07.354Z,5.73
2023-04-23T17:06:09.730Z,4.50
2023-04-23T17:08:57.810Z,4.40
2023-04-23T17:11:45.179Z,4.43
2023-04-23T17:14:32.610Z,4.23
2023-04-23T17:17:20.474Z,6.20
2023-04-23T17:20:09.005Z,4.47
2023-04-23T17:22:56.455Z,4.63
2023-04-23T17:25:43.848Z,4.60
2023-04-23T17:28:31.264Z,7.20
2023-04-23T17:31:18.761Z,5.27
2023-04-23T17:34:06.180Z,5.87
2023-04-23T17:36:53.590Z,5.37
2023-04-23T17:39:40.978Z,5.70
2023-04-23T17:42:28.338Z,5.60
2023-04-23T17:45:15.721Z,5.80
2023-04-23T17:48:03.873Z,19.33
2023-04-23T17:50:51.464Z,25.20
2023-04-23T17:53:38.839Z,9.33
2023-04-23T17:56:27.143Z,4.43
2023-04-23T17:59:15.730Z,5.10
2023-04-23T18:02:04.188Z,5.07
2023-04-23T18:04:51.930Z,4.70
2023-04-23T18:07:39.914Z,5.70
2023-04-23T18:10:28.325Z,6.90
2023-04-23T18:13:15.811Z,5.77
2023-04-23T18:16:03.193Z,5.37
2023-04-23T18:18:50.635Z,6.07
2023-04-23T18:21:38.096Z,5.37
2023-04-23T18:24:25.537Z,7.60
2023-04-23T18:27:12.921Z,5.87
2023-04-23T18:30:00.784Z,5.27
2023-04-23T18:32:48.848Z,4.80
2023-04-23T18:35:36.452Z,5.17
2023-04-23T18:38:25.326Z,5.37
2023-04-23T18:41:12.737Z,6.00
2023-04-23T18:44:00.330Z,6.80
2023-04-23T18:46:47.940Z,6.73
2023-04-23T18:49:38.546Z,5.90
2023-04-23T18:52:25.954Z,9.97
2023-04-23T18:55:13.318Z,5.63
2023-04-23T18:58:01.010Z,5.30
2023-04-23T19:00:48.385Z,6.70
2023-04-23T19:03:35.991Z,5.87
2023-04-23T19:06:23.421Z,5.63
2023-04-23T19:09:10.852Z,7.23
2023-04-23T19:11:58.536Z,6.73
2023-04-23T19:14:45.879Z,8.73
2023-04-23T19:17:34.922Z,5.27
2023-04-23T19:20:22.503Z,5.33
2023-04-23T19:23:09.940Z,6.13
2023-04-23T19:25:57.419Z,6.20
2023-04-23T19:28:44.779Z,6.73
2023-04-23T19:31:32.269Z,9.60
2023-04-23T19:34:19.711Z,9.27
2023-04-23T19:37:07.125Z,6.67
2023-04-23T19:39:54.516Z,8.30
2023-04-23T19:42:41.909Z,7.40
2023-04-23T19:45:29.985Z,7.27
2023-04-23T19:48:17.446Z,6.47
2023-04-23T19:51:04.901Z,6.57
2023-04-23T19:53:53.883Z,8.47
2023-04-23T19:56:41.224Z,6.60
2023-04-23T19:59:28.543Z,9.57
2023-04-23T20:02:16.727Z,7.30
2023-04-23T20:05:04.228Z,6.10
2023-04-23T20:07:52.458Z,6.83
2023-04-23T20:10:39.837Z,5.67
2023-04-23T20:13:27.240Z,6.53
2023-04-23T20:16:14.621Z,5.37
2023-04-23T20:19:04.784Z,7.27
2023-04-23T20:21:52.682Z,6.33
2023-04-23T20:24:40.393Z,7.47
2023-04-23T20:27:27.961Z,8.17
2023-04-23T20:30:16.468Z,5.80
2023-04-23T20:33:04.209Z,6.50
2023-04-23T20:35:51.573Z,6.47
2023-04-23T20:38:39.150Z,8.67
2023-04-23T20:41:26.960Z,6.43
2023-04-23T20:44:14.938Z,6.40
2023-04-23T20:47:05.626Z,6.27
2023-04-23T20:49:53.007Z,6.13
2023-04-23T20:52:40.562Z,7.03
2023-04-23T20:55:28.030Z,6.00
2023-04-23T20:58:15.493Z,8.10
2023-04-23T21:01:04.680Z,6.90
2023-04-23T21:03:53.391Z,7.07
2023-04-23T21:06:42.979Z,6.17
2023-04-23T21:09:30.346Z,7.67
2023-04-23T21:12:17.757Z,7.47
2023-04-23T21:15:05.287Z,7.17
2023-04-23T21:17:52.748Z,7.63
2023-04-23T21:20:40.314Z,6.53
2023-04-23T21:23:27.653Z,6.67
2023-04-23T21:26:15.078Z,6.80
2023-04-23T21:29:02.443Z,7.53
2023-04-23T21:31:51.956Z,7.90
2023-04-23T21:34:39.392Z,7.80
2023-04-23T21:37:26.789Z,8.53
2023-04-23T21:40:14.141Z,7.97
2023-04-23T21:43:01.930Z,7.53
2023-04-23T21:45:49.333Z,8.13
2023-04-23T21:48:36.734Z,6.83
2023-04-23T21:51:25.036Z,7.03
2023-04-23T21:54:13.770Z,6.00
2023-04-23T21:57:02.571Z,7.33
2023-04-23T21:59:49.999Z,9.60
2023-04-23T22:02:37.810Z,6.53
2023-04-23T22:05:25.295Z,8.50
2023-04-23T22:08:12.660Z,6.50
2023-04-23T22:11:00.072Z,6.40
2023-04-23T22:13:47.443Z,8.17
2023-04-23T22:16:35.065Z,6.47
2023-04-23T22:19:22.651Z,6.20
2023-04-23T22:22:09.996Z,6.30
2023-04-23T22:24:57.367Z,6.30
2023-04-23T22:27:44.737Z,4.90
2023-04-23T22:30:32.123Z,7.27
2023-04-23T22:33:19.546Z,5.30
2023-04-23T22:36:07.355Z,5.50
2023-04-23T22:38:55.702Z,5.00
2023-04-23T22:41:43.029Z,5.27
2023-04-23T22:44:30.378Z,5.40
2023-04-23T22:47:17.858Z,4.40
2023-04-23T22:50:06.027Z,4.90
2023-04-23T22:52:53.415Z,4.17
2023-04-23T22:55:40.765Z,4.37
2023-04-23T22:58:28.101Z,4.23
2023-04-23T23:01:16.702Z,4.20
2023-04-23T23:04:04.131Z,6.57
2023-04-23T23:06:51.633Z,3.83
2023-04-23T23:09:38.990Z,4.37
2023-04-23T23:12:26.371Z,3.77
2023-04-23T23:15:13.847Z,4.07
2023-04-23T23:18:02.002Z,5.43
2023-04-23T23:20:49.516Z,3.50
2023-04-23T23:23:36.932Z,4.40
2023-04-23T23:26:24.323Z,5.03
2023-04-23T23:29:11.761Z,4.20
2023-04-23T23:31:59.849Z,6.40
2023-04-23T23:34:47.241Z,4.57
2023-04-23T23:37:35.332Z,3.97
2023-04-23T23:40:22.754Z,4.23
2023-04-23T23:43:10.808Z,3.20
2023-04-23T23:45:58.260Z,3.40
2023-04-23T23:48:45.751Z,3.17
2023-04-23T23:51:33.154Z,3.50
2023-04-23T23:54:20.617Z,3.10
2023-04-23T23:57:07.999Z,3.80
2023-04-23T23:59:55.851Z,4.33
